createdAt,value
2022-10-12T00:01:51.024Z,101299.28
2022-10-12T00:07:53.319Z,101303.53
2022-10-12T00:13:56.079Z,101296.63
2022-10-12T00:19:59.755Z,101299.34
2022-10-12T00:26:13.539Z,101288.34
2022-10-12T00:32:15.769Z,101290.22
2022-10-12T00:38:18.089Z,101299.78
2022-10-12T00:44:36.098Z,101290.84
2022-10-12T00:50:38.628Z,101291.75
2022-10-12T00:56:45.380Z,101287.66
2022-10-12T01:02:50.290Z,101294.66
2022-10-12T01:08:55.637Z,101281.91
2022-10-12T01:14:57.788Z,101288.75
2022-10-12T01:21:21.522Z,101294.53
2022-10-12T01:27:47.748Z,101296.38
2022-10-12T01:33:58.867Z,101296.53
2022-10-12T01:40:09.056Z,101297.66
2022-10-12T01:46:17.514Z,101312.50
2022-10-12T01:52:29.875Z,101313.44
2022-10-12T01:58:54.016Z,101315.50
2022-10-12T02:05:02.222Z,101323.59
2022-10-12T02:11:11.232Z,101326.78
2022-10-12T02:17:16.619Z,101329.72
2022-10-12T02:23:20.026Z,101323.31
2022-10-12T02:29:31.198Z,101327.03
2022-10-12T02:35:41.935Z,101322.78
2022-10-12T02:41:50.131Z,101326.28
2022-10-12T02:47:57.718Z,101324.22
2022-10-12T02:54:00.177Z,101318.09
2022-10-12T03:00:04.898Z,101327.81
2022-10-12T03:06:07.547Z,101330.97
2022-10-12T03:12:09.463Z,101330.75
2022-10-12T03:18:11.612Z,101334.72
2022-10-12T03:24:13.701Z,101339.94
2022-10-12T03:30:16.059Z,101336.28
2022-10-12T03:36:20.198Z,101334.59
2022-10-12T03:42:22.277Z,101340.66
2022-10-12T03:48:24.903Z,101347.56
2022-10-12T03:54:28.213Z,101353.75
2022-10-12T04:00:30.979Z,101357.59
2022-10-12T04:06:32.941Z,101348.22
2022-10-12T04:12:34.951Z,101346.69
2022-10-12T04:18:37.403Z,101356.16
2022-10-12T04:24:40.332Z,101362.50
2022-10-12T04:30:45.725Z,101368.88
2022-10-12T04:36:47.821Z,101377.16
2022-10-12T04:42:50.281Z,101372.75
2022-10-12T04:48:52.214Z,101379.81
2022-10-12T04:54:54.155Z,101380.41
2022-10-12T05:07:40.655Z,101400.41
2022-10-12T05:13:43.105Z,101403.91
